sensor_id;sensor_type;location;lat;lon;timestamp;P1;durP1;ratioP1;P2;durP2;ratioP2
20743;SDS011;56303;52.160;-0.428;2023-11-18T00:02:14;15.27;;;7.33;;
20743;SDS011;56303;52.160;-0.428;2023-11-18T00:04:41;14.90;;;7.50;;
20743;SDS011;56303;52.160;-0.428;2023-11-18T00:07:08;16.10;;;6.87;;
20743;SDS011;56303;52.160;-0.428;2023-11-18T00:09:35;15.30;;;6.90;;
20743;SDS011;56303;52.160;-0.428;2023-11-18T00:12:03;17.70;;;7.20;;
20743;SDS011;56303;52.160;-0.428;2023-11-18T00:14:30;13.20;;;6.27;;
20743;SDS011;56303;52.160;-0.428;2023-11-18T00:16:57;14.37;;;5.60;;
20743;SDS011;56303;52.160;-0.428;2023-11-18T00:19:25;11.60;;;4.60;;
20743;SDS011;56303;52.160;-0.428;2023-11-18T00:21:52;9.37;;;4.47;;
20743;SDS011;56303;52.160;-0.428;2023-11-18T00:24:19;11.13;;;4.40;;
20743;SDS011;56303;52.160;-0.428;2023-11-18T00:26:47;10.53;;;4.10;;
20743;SDS011;56303;52.160;-0.428;2023-11-18T00:29:14;10.80;;;4.37;;
20743;SDS011;56303;52.160;-0.428;2023-11-18T00:31:41;10.23;;;4.37;;
20743;SDS011;56303;52.160;-0.428;2023-11-18T00:34:08;15.90;;;4.57;;
20743;SDS011;56303;52.160;-0.428;2023-11-18T00:36:35;13.07;;;4.50;;
20743;SDS011;56303;52.160;-0.428;2023-11-18T00:39:01;10.90;;;4.00;;
20743;SDS011;56303;52.160;-0.428;2023-11-18T00:41:30;10.13;;;3.90;;
20743;SDS011;56303;52.160;-0.428;2023-11-18T00:43:57;8.53;;;3.63;;
20743;SDS011;56303;52.160;-0.428;2023-11-18T00:46:24;5.50;;;3.00;;
20743;SDS011;56303;52.160;-0.428;2023-11-18T00:48:51;10.80;;;3.57;;
20743;SDS011;56303;52.160;-0.428;2023-11-18T00:51:18;11.37;;;3.57;;
20743;SDS011;56303;52.160;-0.428;2023-11-18T00:53:45;10.43;;;3.40;;
20743;SDS011;56303;52.160;-0.428;2023-11-18T00:56:17;8.87;;;3.27;;
20743;SDS011;56303;52.160;-0.428;2023-11-18T00:58:44;6.50;;;2.90;;
20743;SDS011;56303;52.160;-0.428;2023-11-18T01:01:11;8.77;;;3.23;;
20743;SDS011;56303;52.160;-0.428;2023-11-18T01:03:38;6.57;;;2.27;;
20743;SDS011;56303;52.160;-0.428;2023-11-18T01:06:05;6.80;;;2.87;;
20743;SDS011;56303;52.160;-0.428;2023-11-18T01:08:32;8.07;;;3.50;;
20743;SDS011;56303;52.160;-0.428;2023-11-18T01:10:59;9.30;;;3.10;;
20743;SDS011;56303;52.160;-0.428;2023-11-18T01:13:26;10.37;;;3.67;;
20743;SDS011;56303;52.160;-0.428;2023-11-18T01:15:53;12.27;;;3.17;;
20743;SDS011;56303;52.160;-0.428;2023-11-18T01:18:19;8.73;;;2.90;;
20743;SDS011;56303;52.160;-0.428;2023-11-18T01:20:47;8.67;;;2.80;;
20743;SDS011;56303;52.160;-0.428;2023-11-18T01:23:14;10.10;;;3.60;;
20743;SDS011;56303;52.160;-0.428;2023-11-18T01:25:41;8.97;;;2.70;;
20743;SDS011;56303;52.160;-0.428;2023-11-18T01:28:08;12.10;;;3.40;;
20743;SDS011;56303;52.160;-0.428;2023-11-18T01:30:35;7.00;;;2.67;;
20743;SDS011;56303;52.160;-0.428;2023-11-18T01:33:02;4.67;;;2.43;;
20743;SDS011;56303;52.160;-0.428;2023-11-18T01:35:30;6.80;;;2.80;;
20743;SDS011;56303;52.160;-0.428;2023-11-18T01:37:57;8.30;;;3.50;;
20743;SDS011;56303;52.160;-0.428;2023-11-18T01:40:24;6.87;;;2.70;;
20743;SDS011;56303;52.160;-0.428;2023-11-18T01:42:51;8.33;;;2.50;;
20743;SDS011;56303;52.160;-0.428;2023-11-18T01:45:18;7.43;;;2.10;;
20743;SDS011;56303;52.160;-0.428;2023-11-18T01:47:45;7.50;;;2.83;;
20743;SDS011;56303;52.160;-0.428;2023-11-18T01:50:15;6.37;;;2.50;;
20743;SDS011;56303;52.160;-0.428;2023-11-18T01:52:44;9.23;;;2.33;;
20743;SDS011;56303;52.160;-0.428;2023-11-18T01:55:12;6.10;;;2.40;;
20743;SDS011;56303;52.160;-0.428;2023-11-18T01:57:39;7.90;;;2.50;;
20743;SDS011;56303;52.160;-0.428;2023-11-18T02:00:10;10.03;;;2.90;;
20743;SDS011;56303;52.160;-0.428;2023-11-18T02:02:39;8.00;;;2.90;;
20743;SDS011;56303;52.160;-0.428;2023-11-18T02:05:07;9.53;;;3.17;;
20743;SDS011;56303;52.160;-0.428;2023-11-18T02:07:34;9.17;;;2.70;;
20743;SDS011;56303;52.160;-0.428;2023-11-18T02:10:05;8.80;;;2.80;;
20743;SDS011;56303;52.160;-0.428;2023-11-18T02:12:43;7.63;;;3.13;;
20743;SDS011;56303;52.160;-0.428;2023-11-18T02:15:15;8.13;;;2.50;;
20743;SDS011;56303;52.160;-0.428;2023-11-18T02:17:44;6.23;;;2.23;;
20743;SDS011;56303;52.160;-0.428;2023-11-18T02:20:13;6.77;;;2.53;;
20743;SDS011;56303;52.160;-0.428;2023-11-18T02:22:44;8.03;;;2.70;;
20743;SDS011;56303;52.160;-0.428;2023-11-18T02:25:16;7.73;;;2.73;;
20743;SDS011;56303;52.160;-0.428;2023-11-18T02:27:44;7.67;;;2.43;;
20743;SDS011;56303;52.160;-0.428;2023-11-18T02:30:12;6.47;;;2.80;;
20743;SDS011;56303;52.160;-0.428;2023-11-18T02:33:00;10.40;;;3.67;;
20743;SDS011;56303;52.160;-0.428;2023-11-18T02:35:38;9.83;;;3.93;;
20743;SDS011;56303;52.160;-0.428;2023-11-18T02:38:16;7.63;;;3.37;;
20743;SDS011;56303;52.160;-0.428;2023-11-18T02:40:49;6.87;;;2.87;;
20743;SDS011;56303;52.160;-0.428;2023-11-18T02:43:19;6.83;;;3.30;;
20743;SDS011;56303;52.160;-0.428;2023-11-18T02:45:46;7.30;;;2.67;;
20743;SDS011;56303;52.160;-0.428;2023-11-18T02:48:15;10.00;;;3.57;;
20743;SDS011;56303;52.160;-0.428;2023-11-18T02:50:44;8.80;;;3.30;;
20743;SDS011;56303;52.160;-0.428;2023-11-18T02:53:11;13.03;;;4.27;;
20743;SDS011;56303;52.160;-0.428;2023-11-18T02:55:38;8.90;;;3.83;;
20743;SDS011;56303;52.160;-0.428;2023-11-18T02:58:07;10.83;;;3.90;;
20743;SDS011;56303;52.160;-0.428;2023-11-18T03:00:34;10.33;;;4.33;;
20743;SDS011;56303;52.160;-0.428;2023-11-18T03:03:01;11.97;;;4.67;;
20743;SDS011;56303;52.160;-0.428;2023-11-18T03:05:30;9.07;;;4.80;;
20743;SDS011;56303;52.160;-0.428;2023-11-18T03:07:56;7.67;;;4.17;;
20743;SDS011;56303;52.160;-0.428;2023-11-18T03:10:24;8.87;;;4.47;;
20743;SDS011;56303;52.160;-0.428;2023-11-18T03:12:53;9.70;;;4.20;;
20743;SDS011;56303;52.160;-0.428;2023-11-18T03:15:20;10.20;;;4.83;;
20743;SDS011;56303;52.160;-0.428;2023-11-18T03:17:49;9.33;;;5.57;;
20743;SDS011;56303;52.160;-0.428;2023-11-18T03:20:17;9.57;;;4.77;;
20743;SDS011;56303;52.160;-0.428;2023-11-18T03:22:45;8.63;;;4.90;;
20743;SDS011;56303;52.160;-0.428;2023-11-18T03:25:13;10.63;;;5.17;;
20743;SDS011;56303;52.160;-0.428;2023-11-18T03:27:40;8.63;;;5.33;;
20743;SDS011;56303;52.160;-0.428;2023-11-18T03:30:08;8.90;;;5.27;;
20743;SDS011;56303;52.160;-0.428;2023-11-18T03:32:36;12.57;;;5.73;;
20743;SDS011;56303;52.160;-0.428;2023-11-18T03:35:04;10.80;;;4.73;;
20743;SDS011;56303;52.160;-0.428;2023-11-18T03:37:35;11.20;;;5.10;;
20743;SDS011;56303;52.160;-0.428;2023-11-18T03:40:09;9.87;;;4.43;;
20743;SDS011;56303;52.160;-0.428;2023-11-18T03:42:38;8.37;;;4.57;;
20743;SDS011;56303;52.160;-0.428;2023-11-18T03:45:06;9.40;;;4.70;;
20743;SDS011;56303;52.160;-0.428;2023-11-18T03:47:33;12.30;;;5.23;;
20743;SDS011;56303;52.160;-0.428;2023-11-18T03:50:00;9.00;;;3.93;;
20743;SDS011;56303;52.160;-0.428;2023-11-18T03:52:27;8.50;;;4.33;;
20743;SDS011;56303;52.160;-0.428;2023-11-18T03:54:55;8.00;;;4.10;;
20743;SDS011;56303;52.160;-0.428;2023-11-18T03:57:22;7.63;;;4.57;;
20743;SDS011;56303;52.160;-0.428;2023-11-18T03:59:49;8.87;;;4.03;;
20743;SDS011;56303;52.160;-0.428;2023-11-18T04:02:16;9.17;;;4.00;;
20743;SDS011;56303;52.160;-0.428;2023-11-18T04:04:44;8.97;;;4.33;;
20743;SDS011;56303;52.160;-0.428;2023-11-18T04:07:10;8.47;;;4.07;;
20743;SDS011;56303;52.160;-0.428;2023-11-18T04:09:37;10.70;;;4.63;;
20743;SDS011;56303;52.160;-0.428;2023-11-18T04:12:07;7.17;;;4.03;;
20743;SDS011;56303;52.160;-0.428;2023-11-18T04:14:34;10.33;;;4.37;;
20743;SDS011;56303;52.160;-0.428;2023-11-18T04:17:01;6.57;;;4.00;;
20743;SDS011;56303;52.160;-0.428;2023-11-18T04:19:28;8.03;;;4.03;;
20743;SDS011;56303;52.160;-0.428;2023-11-18T04:21:55;8.17;;;4.57;;
20743;SDS011;56303;52.160;-0.428;2023-11-18T04:24:21;10.50;;;4.47;;
20743;SDS011;56303;52.160;-0.428;2023-11-18T04:26:48;5.53;;;3.87;;
20743;SDS011;56303;52.160;-0.428;2023-11-18T04:29:15;7.17;;;4.83;;
20743;SDS011;56303;52.160;-0.428;2023-11-18T04:31:42;6.20;;;4.10;;
20743;SDS011;56303;52.160;-0.428;2023-11-18T04:34:09;7.57;;;3.73;;
20743;SDS011;56303;52.160;-0.428;2023-11-18T04:36:36;7.47;;;3.53;;
20743;SDS011;56303;52.160;-0.428;2023-11-18T04:39:03;7.70;;;3.87;;
20743;SDS011;56303;52.160;-0.428;2023-11-18T04:41:30;5.70;;;3.60;;
20743;SDS011;56303;52.160;-0.428;2023-11-18T04:43:58;5.47;;;2.93;;
20743;SDS011;56303;52.160;-0.428;2023-11-18T04:46:25;5.13;;;3.30;;
20743;SDS011;56303;52.160;-0.428;2023-11-18T04:48:52;4.40;;;2.87;;
20743;SDS011;56303;52.160;-0.428;2023-11-18T04:51:21;4.10;;;2.97;;
20743;SDS011;56303;52.160;-0.428;2023-11-18T04:53:48;5.90;;;3.17;;
20743;SDS011;56303;52.160;-0.428;2023-11-18T04:56:15;5.03;;;2.70;;
20743;SDS011;56303;52.160;-0.428;2023-11-18T04:58:45;4.17;;;2.53;;
20743;SDS011;56303;52.160;-0.428;2023-11-18T05:01:14;4.00;;;2.90;;
20743;SDS011;56303;52.160;-0.428;2023-11-18T05:03:41;2.80;;;2.30;;
20743;SDS011;56303;52.160;-0.428;2023-11-18T05:06:08;3.20;;;2.30;;
20743;SDS011;56303;52.160;-0.428;2023-11-18T05:08:35;3.47;;;2.77;;
20743;SDS011;56303;52.160;-0.428;2023-11-18T05:11:02;4.23;;;2.63;;
20743;SDS011;56303;52.160;-0.428;2023-11-18T05:13:31;3.30;;;2.43;;
20743;SDS011;56303;52.160;-0.428;2023-11-18T05:16:00;3.67;;;2.53;;
20743;SDS011;56303;52.160;-0.428;2023-11-18T05:18:27;3.07;;;2.33;;
20743;SDS011;56303;52.160;-0.428;2023-11-18T05:20:56;5.47;;;2.57;;
20743;SDS011;56303;52.160;-0.428;2023-11-18T05:23:23;2.00;;;1.70;;
20743;SDS011;56303;52.160;-0.428;2023-11-18T05:25:50;3.67;;;1.93;;
20743;SDS011;56303;52.160;-0.428;2023-11-18T05:28:17;2.07;;;1.50;;
20743;SDS011;56303;52.160;-0.428;2023-11-18T05:30:44;1.40;;;1.30;;
20743;SDS011;56303;52.160;-0.428;2023-11-18T05:33:11;1.70;;;1.23;;
20743;SDS011;56303;52.160;-0.428;2023-11-18T05:35:44;2.17;;;1.40;;
20743;SDS011;56303;52.160;-0.428;2023-11-18T05:38:17;2.17;;;1.33;;
20743;SDS011;56303;52.160;-0.428;2023-11-18T05:40:48;1.83;;;1.60;;
20743;SDS011;56303;52.160;-0.428;2023-11-18T05:43:26;1.87;;;1.10;;
20743;SDS011;56303;52.160;-0.428;2023-11-18T05:45:57;2.87;;;1.50;;
20743;SDS011;56303;52.160;-0.428;2023-11-18T05:48:43;2.10;;;1.47;;
20743;SDS011;56303;52.160;-0.428;2023-11-18T05:51:11;1.40;;;1.30;;
20743;SDS011;56303;52.160;-0.428;2023-11-18T05:53:41;4.10;;;1.63;;
20743;SDS011;56303;52.160;-0.428;2023-11-18T05:56:11;2.87;;;1.23;;
20743;SDS011;56303;52.160;-0.428;2023-11-18T05:58:39;2.10;;;1.37;;
20743;SDS011;56303;52.160;-0.428;2023-11-18T06:01:06;3.33;;;1.80;;
20743;SDS011;56303;52.160;-0.428;2023-11-18T06:03:34;2.57;;;1.67;;
20743;SDS011;56303;52.160;-0.428;2023-11-18T06:08:36;1.43;;;1.33;;
20743;SDS011;56303;52.160;-0.428;2023-11-18T06:11:07;1.73;;;1.60;;
20743;SDS011;56303;52.160;-0.428;2023-11-18T06:13:42;3.17;;;1.60;;
20743;SDS011;56303;52.160;-0.428;2023-11-18T06:16:17;4.07;;;1.63;;
20743;SDS011;56303;52.160;-0.428;2023-11-18T06:18:48;2.00;;;1.30;;
20743;SDS011;56303;52.160;-0.428;2023-11-18T06:21:22;1.60;;;1.33;;
20743;SDS011;56303;52.160;-0.428;2023-11-18T06:24:00;1.43;;;1.13;;
20743;SDS011;56303;52.160;-0.428;2023-11-18T06:26:27;1.63;;;1.30;;
20743;SDS011;56303;52.160;-0.428;2023-11-18T06:28:55;1.20;;;1.10;;
20743;SDS011;56303;52.160;-0.428;2023-11-18T06:31:23;3.13;;;1.47;;
20743;SDS011;56303;52.160;-0.428;2023-11-18T06:33:50;4.10;;;1.57;;
20743;SDS011;56303;52.160;-0.428;2023-11-18T06:36:18;2.23;;;1.10;;
20743;SDS011;56303;52.160;-0.428;2023-11-18T06:38:50;1.40;;;1.30;;
20743;SDS011;56303;52.160;-0.428;2023-11-18T06:41:19;2.30;;;1.50;;
20743;SDS011;56303;52.160;-0.428;2023-11-18T06:43:50;1.07;;;0.87;;
20743;SDS011;56303;52.160;-0.428;2023-11-18T06:46:19;1.40;;;1.10;;
20743;SDS011;56303;52.160;-0.428;2023-11-18T06:48:49;2.10;;;1.20;;
20743;SDS011;56303;52.160;-0.428;2023-11-18T06:51:20;2.43;;;1.57;;
20743;SDS011;56303;52.160;-0.428;2023-11-18T06:53:51;3.80;;;1.60;;
20743;SDS011;56303;52.160;-0.428;2023-11-18T06:56:21;1.40;;;1.03;;
20743;SDS011;56303;52.160;-0.428;2023-11-18T06:58:48;2.10;;;1.30;;
20743;SDS011;56303;52.160;-0.428;2023-11-18T07:01:16;2.10;;;1.30;;
20743;SDS011;56303;52.160;-0.428;2023-11-18T07:03:43;1.03;;;0.90;;
20743;SDS011;56303;52.160;-0.428;2023-11-18T07:06:10;1.43;;;0.93;;
20743;SDS011;56303;52.160;-0.428;2023-11-18T07:08:40;1.27;;;1.00;;
20743;SDS011;56303;52.160;-0.428;2023-11-18T07:11:07;2.13;;;1.00;;
20743;SDS011;56303;52.160;-0.428;2023-11-18T07:13:34;1.13;;;0.90;;
20743;SDS011;56303;52.160;-0.428;2023-11-18T07:16:01;1.37;;;0.80;;
20743;SDS011;56303;52.160;-0.428;2023-11-18T07:18:29;1.67;;;0.90;;
20743;SDS011;56303;52.160;-0.428;2023-11-18T07:21:01;1.10;;;0.43;;
20743;SDS011;56303;52.160;-0.428;2023-11-18T07:23:33;0.53;;;0.53;;
20743;SDS011;56303;52.160;-0.428;2023-11-18T07:26:01;1.97;;;1.17;;
20743;SDS011;56303;52.160;-0.428;2023-11-18T07:28:30;1.20;;;0.63;;
20743;SDS011;56303;52.160;-0.428;2023-11-18T07:30:57;1.03;;;0.73;;
20743;SDS011;56303;52.160;-0.428;2023-11-18T07:33:26;1.43;;;0.90;;
20743;SDS011;56303;52.160;-0.428;2023-11-18T07:35:53;1.10;;;0.73;;
20743;SDS011;56303;52.160;-0.428;2023-11-18T07:38:21;0.90;;;0.83;;
20743;SDS011;56303;52.160;-0.428;2023-11-18T07:40:48;3.63;;;0.80;;
20743;SDS011;56303;52.160;-0.428;2023-11-18T07:43:15;1.13;;;0.63;;
20743;SDS011;56303;52.160;-0.428;2023-11-18T07:45:42;0.53;;;0.37;;
20743;SDS011;56303;52.160;-0.428;2023-11-18T07:48:10;1.23;;;0.83;;
20743;SDS011;56303;52.160;-0.428;2023-11-18T07:50:39;0.43;;;0.43;;
20743;SDS011;56303;52.160;-0.428;2023-11-18T07:53:10;1.10;;;1.00;;
20743;SDS011;56303;52.160;-0.428;2023-11-18T07:55:37;4.40;;;1.10;;
20743;SDS011;56303;52.160;-0.428;2023-11-18T07:58:08;1.07;;;0.43;;
20743;SDS011;56303;52.160;-0.428;2023-11-18T08:00:38;0.67;;;0.67;;
20743;SDS011;56303;52.160;-0.428;2023-11-18T08:03:06;3.10;;;0.70;;
20743;SDS011;56303;52.160;-0.428;2023-11-18T08:05:39;1.33;;;0.80;;
20743;SDS011;56303;52.160;-0.428;2023-11-18T08:08:10;1.07;;;0.60;;
20743;SDS011;56303;52.160;-0.428;2023-11-18T08:10:39;1.63;;;0.63;;
20743;SDS011;56303;52.160;-0.428;2023-11-18T08:13:07;0.97;;;0.40;;
20743;SDS011;56303;52.160;-0.428;2023-11-18T08:15:37;0.40;;;0.40;;
20743;SDS011;56303;52.160;-0.428;2023-11-18T08:18:06;0.40;;;0.40;;
20743;SDS011;56303;52.160;-0.428;2023-11-18T08:20:33;1.63;;;0.40;;
20743;SDS011;56303;52.160;-0.428;2023-11-18T08:23:00;0.67;;;0.60;;
20743;SDS011;56303;52.160;-0.428;2023-11-18T08:25:27;0.77;;;0.77;;
20743;SDS011;56303;52.160;-0.428;2023-11-18T08:27:54;0.50;;;0.50;;
20743;SDS011;56303;52.160;-0.428;2023-11-18T08:30:21;0.80;;;0.43;;
20743;SDS011;56303;52.160;-0.428;2023-11-18T08:32:48;0.20;;;0.10;;
20743;SDS011;56303;52.160;-0.428;2023-11-18T08:35:15;0.63;;;0.30;;
20743;SDS011;56303;52.160;-0.428;2023-11-18T08:37:43;1.33;;;0.43;;
20743;SDS011;56303;52.160;-0.428;2023-11-18T08:40:11;0.77;;;0.47;;
20743;SDS011;56303;52.160;-0.428;2023-11-18T08:42:42;0.30;;;0.30;;
20743;SDS011;56303;52.160;-0.428;2023-11-18T08:45:20;0.43;;;0.33;;
20743;SDS011;56303;52.160;-0.428;2023-11-18T08:48:00;0.60;;;0.57;;
20743;SDS011;56303;52.160;-0.428;2023-11-18T08:50:34;0.40;;;0.40;;
20743;SDS011;56303;52.160;-0.428;2023-11-18T08:53:02;0.30;;;0.30;;
20743;SDS011;56303;52.160;-0.428;2023-11-18T08:55:32;1.60;;;0.60;;
20743;SDS011;56303;52.160;-0.428;2023-11-18T08:58:09;0.57;;;0.47;;
20743;SDS011;56303;52.160;-0.428;2023-11-18T09:00:46;1.40;;;0.90;;
20743;SDS011;56303;52.160;-0.428;2023-11-18T09:03:15;1.57;;;0.50;;
20743;SDS011;56303;52.160;-0.428;2023-11-18T09:05:55;0.93;;;0.70;;
20743;SDS011;56303;52.160;-0.428;2023-11-18T09:11:05;2.93;;;0.73;;
20743;SDS011;56303;52.160;-0.428;2023-11-18T09:13:34;1.63;;;0.63;;
20743;SDS011;56303;52.160;-0.428;2023-11-18T09:16:05;0.93;;;0.60;;
20743;SDS011;56303;52.160;-0.428;2023-11-18T09:18:36;0.87;;;0.43;;
20743;SDS011;56303;52.160;-0.428;2023-11-18T09:21:08;1.47;;;0.47;;
20743;SDS011;56303;52.160;-0.428;2023-11-18T09:23:42;0.30;;;0.30;;
20743;SDS011;56303;52.160;-0.428;2023-11-18T09:26:10;1.70;;;0.50;;
20743;SDS011;56303;52.160;-0.428;2023-11-18T09:28:37;0.53;;;0.37;;
20743;SDS011;56303;52.160;-0.428;2023-11-18T09:31:05;0.90;;;0.50;;
20743;SDS011;56303;52.160;-0.428;2023-11-18T09:33:33;0.30;;;0.30;;
20743;SDS011;56303;52.160;-0.428;2023-11-18T09:36:05;0.83;;;0.63;;
20743;SDS011;56303;52.160;-0.428;2023-11-18T09:38:39;0.83;;;0.50;;
20743;SDS011;56303;52.160;-0.428;2023-11-18T09:41:12;0.93;;;0.60;;
20743;SDS011;56303;52.160;-0.428;2023-11-18T09:43:40;0.50;;;0.30;;
20743;SDS011;56303;52.160;-0.428;2023-11-18T09:46:16;0.40;;;0.40;;
20743;SDS011;56303;52.160;-0.428;2023-11-18T09:48:49;0.30;;;0.30;;
20743;SDS011;56303;52.160;-0.428;2023-11-18T09:51:38;0.23;;;0.23;;
20743;SDS011;56303;52.160;-0.428;2023-11-18T09:54:16;0.40;;;0.40;;
20743;SDS011;56303;52.160;-0.428;2023-11-18T10:00:11;0.40;;;0.40;;
20743;SDS011;56303;52.160;-0.428;2023-11-18T10:02:53;0.90;;;0.33;;
20743;SDS011;56303;52.160;-0.428;2023-11-18T10:05:23;0.30;;;0.30;;
20743;SDS011;56303;52.160;-0.428;2023-11-18T10:07:54;0.30;;;0.30;;
20743;SDS011;56303;52.160;-0.428;2023-11-18T10:10:21;1.07;;;0.40;;
20743;SDS011;56303;52.160;-0.428;2023-11-18T10:12:48;1.17;;;0.50;;
20743;SDS011;56303;52.160;-0.428;2023-11-18T10:15:20;0.20;;;0.20;;
20743;SDS011;56303;52.160;-0.428;2023-11-18T10:17:51;0.57;;;0.40;;
20743;SDS011;56303;52.160;-0.428;2023-11-18T10:23:23;0.43;;;0.43;;
20743;SDS011;56303;52.160;-0.428;2023-11-18T10:25:57;1.30;;;0.43;;
20743;SDS011;56303;52.160;-0.428;2023-11-18T10:28:25;0.57;;;0.37;;
20743;SDS011;56303;52.160;-0.428;2023-11-18T10:30:55;0.20;;;0.20;;
20743;SDS011;56303;52.160;-0.428;2023-11-18T10:33:41;0.30;;;0.30;;
20743;SDS011;56303;52.160;-0.428;2023-11-18T10:36:18;0.40;;;0.40;;
20743;SDS011;56303;52.160;-0.428;2023-11-18T10:38:50;3.37;;;0.50;;
20743;SDS011;56303;52.160;-0.428;2023-11-18T10:41:21;0.40;;;0.40;;
20743;SDS011;56303;52.160;-0.428;2023-11-18T10:43:49;0.93;;;0.90;;
20743;SDS011;56303;52.160;-0.428;2023-11-18T10:46:31;0.53;;;0.30;;
20743;SDS011;56303;52.160;-0.428;2023-11-18T10:48:58;1.43;;;0.70;;
20743;SDS011;56303;52.160;-0.428;2023-11-18T10:51:26;1.00;;;0.80;;
20743;SDS011;56303;52.160;-0.428;2023-11-18T10:53:53;1.43;;;0.73;;
20743;SDS011;56303;52.160;-0.428;2023-11-18T10:56:26;0.93;;;0.73;;
20743;SDS011;56303;52.160;-0.428;2023-11-18T11:01:31;0.90;;;0.40;;
20743;SDS011;56303;52.160;-0.428;2023-11-18T11:03:59;0.87;;;0.50;;
20743;SDS011;56303;52.160;-0.428;2023-11-18T11:06:31;0.77;;;0.67;;
20743;SDS011;56303;52.160;-0.428;2023-11-18T11:08:59;0.30;;;0.30;;
20743;SDS011;56303;52.160;-0.428;2023-11-18T11:11:32;1.03;;;0.50;;
20743;SDS011;56303;52.160;-0.428;2023-11-18T11:14:05;0.47;;;0.30;;
20743;SDS011;56303;52.160;-0.428;2023-11-18T11:16:37;1.10;;;0.40;;
20743;SDS011;56303;52.160;-0.428;2023-11-18T11:19:13;0.23;;;0.23;;
20743;SDS011;56303;52.160;-0.428;2023-11-18T11:22:11;0.30;;;0.20;;
20743;SDS011;56303;52.160;-0.428;2023-11-18T11:27:23;0.20;;;0.20;;
20743;SDS011;56303;52.160;-0.428;2023-11-18T11:30:02;0.40;;;0.30;;
20743;SDS011;56303;52.160;-0.428;2023-11-18T11:32:50;1.07;;;0.47;;
20743;SDS011;56303;52.160;-0.428;2023-11-18T11:35:27;0.70;;;0.70;;
20743;SDS011;56303;52.160;-0.428;2023-11-18T11:37:57;1.00;;;0.50;;
20743;SDS011;56303;52.160;-0.428;2023-11-18T11:40:30;0.80;;;0.60;;
20743;SDS011;56303;52.160;-0.428;2023-11-18T11:42:58;0.80;;;0.67;;
20743;SDS011;56303;52.160;-0.428;2023-11-18T11:45:31;0.83;;;0.73;;
20743;SDS011;56303;52.160;-0.428;2023-11-18T11:47:59;2.03;;;0.63;;
20743;SDS011;56303;52.160;-0.428;2023-11-18T11:50:54;1.23;;;0.37;;
20743;SDS011;56303;52.160;-0.428;2023-11-18T11:53:23;2.03;;;0.67;;
20743;SDS011;56303;52.160;-0.428;2023-11-18T11:55:53;1.37;;;0.63;;
20743;SDS011;56303;52.160;-0.428;2023-11-18T11:58:34;1.47;;;0.60;;
20743;SDS011;56303;52.160;-0.428;2023-11-18T12:04:19;0.87;;;0.67;;
20743;SDS011;56303;52.160;-0.428;2023-11-18T12:06:54;0.77;;;0.77;;
20743;SDS011;56303;52.160;-0.428;2023-11-18T12:09:35;1.10;;;0.70;;
20743;SDS011;56303;52.160;-0.428;2023-11-18T12:12:05;2.47;;;1.03;;
20743;SDS011;56303;52.160;-0.428;2023-11-18T12:14:49;2.83;;;1.23;;
20743;SDS011;56303;52.160;-0.428;2023-11-18T12:17:26;1.43;;;1.13;;
20743;SDS011;56303;52.160;-0.428;2023-11-18T12:19:59;1.50;;;1.03;;
20743;SDS011;56303;52.160;-0.428;2023-11-18T12:22:26;1.80;;;0.90;;
20743;SDS011;56303;52.160;-0.428;2023-11-18T12:30:37;2.47;;;1.20;;
20743;SDS011;56303;52.160;-0.428;2023-11-18T12:33:03;1.67;;;1.07;;
20743;SDS011;56303;52.160;-0.428;2023-11-18T12:38:38;2.63;;;0.93;;
20743;SDS011;56303;52.160;-0.428;2023-11-18T12:41:34;1.90;;;1.20;;
20743;SDS011;56303;52.160;-0.428;2023-11-18T12:44:15;2.57;;;1.20;;
20743;SDS011;56303;52.160;-0.428;2023-11-18T12:46:49;3.47;;;1.03;;
20743;SDS011;56303;52.160;-0.428;2023-11-18T12:49:20;2.30;;;1.10;;
20743;SDS011;56303;52.160;-0.428;2023-11-18T12:51:52;0.53;;;0.53;;
20743;SDS011;56303;52.160;-0.428;2023-11-18T12:54:24;2.17;;;1.53;;
20743;SDS011;56303;52.160;-0.428;2023-11-18T12:56:57;3.47;;;1.50;;
20743;SDS011;56303;52.160;-0.428;2023-11-18T12:59:24;4.00;;;1.20;;
20743;SDS011;56303;52.160;-0.428;2023-11-18T13:01:51;3.10;;;1.33;;
20743;SDS011;56303;52.160;-0.428;2023-11-18T13:04:23;4.80;;;2.03;;
20743;SDS011;56303;52.160;-0.428;2023-11-18T13:06:54;3.40;;;1.47;;
20743;SDS011;56303;52.160;-0.428;2023-11-18T13:09:21;5.97;;;1.53;;
20743;SDS011;56303;52.160;-0.428;2023-11-18T13:11:56;6.93;;;2.07;;
20743;SDS011;56303;52.160;-0.428;2023-11-18T13:14:28;4.17;;;1.60;;
20743;SDS011;56303;52.160;-0.428;2023-11-18T13:17:02;3.93;;;1.70;;
20743;SDS011;56303;52.160;-0.428;2023-11-18T13:19:32;5.67;;;2.00;;
20743;SDS011;56303;52.160;-0.428;2023-11-18T13:22:01;3.33;;;1.60;;
20743;SDS011;56303;52.160;-0.428;2023-11-18T13:24:34;5.30;;;2.17;;
20743;SDS011;56303;52.160;-0.428;2023-11-18T13:27:06;3.07;;;1.90;;
20743;SDS011;56303;52.160;-0.428;2023-11-18T13:29:35;5.57;;;2.10;;
20743;SDS011;56303;52.160;-0.428;2023-11-18T13:32:05;6.10;;;2.03;;
20743;SDS011;56303;52.160;-0.428;2023-11-18T13:34:34;6.10;;;2.60;;
20743;SDS011;56303;52.160;-0.428;2023-11-18T13:37:08;7.67;;;2.10;;
20743;SDS011;56303;52.160;-0.428;2023-11-18T13:39:39;7.30;;;3.30;;
20743;SDS011;56303;52.160;-0.428;2023-11-18T13:45:05;7.67;;;2.77;;
20743;SDS011;56303;52.160;-0.428;2023-11-18T13:47:41;7.10;;;2.80;;
20743;SDS011;56303;52.160;-0.428;2023-11-18T13:50:18;9.27;;;2.53;;
20743;SDS011;56303;52.160;-0.428;2023-11-18T13:52:46;6.60;;;2.67;;
20743;SDS011;56303;52.160;-0.428;2023-11-18T13:55:17;7.87;;;2.20;;
20743;SDS011;56303;52.160;-0.428;2023-11-18T13:57:52;4.93;;;2.07;;
20743;SDS011;56303;52.160;-0.428;2023-11-18T14:00:22;11.20;;;2.30;;
20743;SDS011;56303;52.160;-0.428;2023-11-18T14:02:58;4.87;;;2.00;;
20743;SDS011;56303;52.160;-0.428;2023-11-18T14:05:32;7.90;;;2.43;;
20743;SDS011;56303;52.160;-0.428;2023-11-18T14:08:00;6.60;;;2.20;;
20743;SDS011;56303;52.160;-0.428;2023-11-18T14:10:36;8.67;;;2.47;;
20743;SDS011;56303;52.160;-0.428;2023-11-18T14:13:07;4.80;;;2.50;;
20743;SDS011;56303;52.160;-0.428;2023-11-18T14:15:43;5.00;;;2.50;;
20743;SDS011;56303;52.160;-0.428;2023-11-18T14:18:11;6.63;;;2.20;;
20743;SDS011;56303;52.160;-0.428;2023-11-18T14:20:40;8.80;;;2.50;;
20743;SDS011;56303;52.160;-0.428;2023-11-18T14:23:07;8.33;;;2.83;;
20743;SDS011;56303;52.160;-0.428;2023-11-18T14:25:35;6.17;;;2.40;;
20743;SDS011;56303;52.160;-0.428;2023-11-18T14:28:02;6.97;;;2.50;;
20743;SDS011;56303;52.160;-0.428;2023-11-18T14:30:30;5.60;;;2.60;;
20743;SDS011;56303;52.160;-0.428;2023-11-18T14:32:57;7.77;;;2.50;;
20743;SDS011;56303;52.160;-0.428;2023-11-18T14:35:23;6.07;;;2.43;;
20743;SDS011;56303;52.160;-0.428;2023-11-18T14:37:55;5.67;;;2.30;;
20743;SDS011;56303;52.160;-0.428;2023-11-18T14:40:22;6.13;;;2.57;;
20743;SDS011;56303;52.160;-0.428;2023-11-18T14:42:50;7.70;;;2.50;;
20743;SDS011;56303;52.160;-0.428;2023-11-18T14:45:18;6.37;;;2.53;;
20743;SDS011;56303;52.160;-0.428;2023-11-18T14:47:45;5.30;;;2.63;;
20743;SDS011;56303;52.160;-0.428;2023-11-18T14:50:14;7.00;;;2.73;;
20743;SDS011;56303;52.160;-0.428;2023-11-18T14:52:48;6.77;;;2.57;;
20743;SDS011;56303;52.160;-0.428;2023-11-18T14:55:17;5.90;;;2.40;;
20743;SDS011;56303;52.160;-0.428;2023-11-18T14:57:44;5.57;;;1.87;;
20743;SDS011;56303;52.160;-0.428;2023-11-18T15:00:12;5.80;;;2.63;;
20743;SDS011;56303;52.160;-0.428;2023-11-18T15:02:48;7.53;;;2.43;;
20743;SDS011;56303;52.160;-0.428;2023-11-18T15:05:18;5.97;;;1.97;;
20743;SDS011;56303;52.160;-0.428;2023-11-18T15:10:16;6.23;;;2.47;;
20743;SDS011;56303;52.160;-0.428;2023-11-18T15:12:51;8.37;;;2.77;;
20743;SDS011;56303;52.160;-0.428;2023-11-18T15:15:21;7.43;;;2.50;;
20743;SDS011;56303;52.160;-0.428;2023-11-18T15:17:48;6.67;;;2.47;;
20743;SDS011;56303;52.160;-0.428;2023-11-18T15:20:16;7.77;;;2.70;;
20743;SDS011;56303;52.160;-0.428;2023-11-18T15:22:49;6.53;;;2.67;;
20743;SDS011;56303;52.160;-0.428;2023-11-18T15:25:16;7.70;;;2.60;;